createdAt,value
2018-02-06T00:00:07.263Z,29.50
2018-02-06T00:02:36.126Z,26.23
2018-02-06T00:05:04.958Z,25.97
2018-02-06T00:07:33.824Z,24.13
2018-02-06T00:10:02.685Z,24.53
2018-02-06T00:12:31.558Z,25.77
2018-02-06T00:15:01.363Z,30.10
2018-02-06T00:17:30.254Z,26.67
2018-02-06T00:19:59.083Z,22.20
2018-02-06T00:22:33.744Z,25.80
2018-02-06T00:25:02.589Z,24.90
2018-02-06T00:27:32.686Z,24.33
2018-02-06T00:30:01.641Z,23.93
2018-02-06T00:32:30.562Z,27.70
2018-02-06T00:34:59.414Z,27.13
2018-02-06T00:37:28.290Z,23.57
2018-02-06T00:39:57.120Z,25.53
2018-02-06T00:42:25.962Z,19.67
2018-02-06T00:44:54.880Z,26.87
2018-02-06T00:47:23.727Z,24.13
2018-02-06T00:49:53.260Z,24.67
2018-02-06T00:52:22.126Z,22.73
2018-02-06T00:54:50.998Z,26.27
2018-02-06T00:57:19.838Z,25.60
2018-02-06T00:59:48.694Z,25.50
2018-02-06T01:02:17.531Z,25.90
2018-02-06T01:04:46.384Z,23.60
2018-02-06T01:07:15.264Z,25.83
2018-02-06T01:09:44.105Z,25.37
2018-02-06T01:12:12.961Z,26.07
2018-02-06T01:14:41.833Z,24.30
2018-02-06T01:17:10.667Z,30.50
2018-02-06T01:19:39.532Z,24.70
2018-02-06T01:22:08.435Z,27.47
2018-02-06T01:24:37.302Z,27.87
2018-02-06T01:27:06.145Z,28.20
2018-02-06T01:29:35.014Z,28.90
2018-02-06T01:32:03.862Z,25.60
2018-02-06T01:34:32.701Z,22.77
2018-02-06T01:37:01.565Z,29.90
2018-02-06T01:39:30.415Z,24.60
2018-02-06T01:41:59.272Z,26.80
2018-02-06T01:44:29.406Z,26.87
2018-02-06T01:46:58.948Z,25.27
2018-02-06T01:49:27.800Z,26.93
2018-02-06T01:51:56.639Z,29.07
2018-02-06T01:54:25.511Z,23.07
2018-02-06T01:56:54.368Z,24.00
2018-02-06T01:59:23.209Z,25.83
2018-02-06T02:01:53.298Z,28.33
2018-02-06T02:04:22.915Z,29.10
2018-02-06T02:06:52.557Z,26.33
2018-02-06T02:09:21.507Z,23.77
2018-02-06T02:11:50.381Z,18.60
2018-02-06T02:14:19.229Z,25.47
2018-02-06T02:16:48.097Z,26.57
2018-02-06T02:19:17.013Z,25.13
2018-02-06T02:21:45.858Z,26.70
2018-02-06T02:24:14.726Z,27.43
2018-02-06T02:26:43.594Z,25.97
2018-02-06T02:29:12.438Z,25.20
2018-02-06T02:31:41.808Z,26.40
2018-02-06T02:34:10.681Z,29.83
2018-02-06T02:36:41.400Z,26.57
2018-02-06T02:39:11.190Z,24.80
2018-02-06T02:41:40.057Z,25.77
2018-02-06T04:40:49.631Z,26.60
2018-02-06T04:43:18.509Z,29.00
2018-02-06T04:45:47.378Z,28.67
2018-02-06T04:48:16.240Z,26.97
2018-02-06T04:50:45.084Z,24.57
2018-02-06T04:53:13.938Z,23.93
2018-02-06T04:55:42.792Z,28.53
2018-02-06T04:58:11.630Z,26.90
2018-02-06T05:00:40.531Z,25.50
2018-02-06T05:03:09.411Z,25.37
2018-02-06T05:05:38.261Z,27.73
2018-02-06T05:08:07.092Z,24.80
2018-02-06T05:10:35.955Z,24.93
2018-02-06T05:13:04.790Z,22.83
2018-02-06T05:15:34.350Z,25.10
2018-02-06T05:18:03.216Z,23.37
2018-02-06T05:20:32.057Z,21.10
2018-02-06T05:23:00.895Z,25.63
2018-02-06T05:25:29.767Z,26.57
2018-02-06T05:27:59.261Z,25.07
2018-02-06T05:30:28.121Z,26.60
2018-02-06T05:32:57.008Z,24.83
2018-02-06T05:35:25.851Z,22.97
2018-02-06T05:37:54.693Z,24.17
2018-02-06T05:40:23.599Z,22.57
2018-02-06T05:42:53.582Z,22.90
2018-02-06T05:45:22.415Z,23.00
2018-02-06T05:47:51.268Z,22.90
2018-02-06T05:50:20.109Z,25.17
2018-02-06T05:52:48.946Z,23.23
2018-02-06T05:55:17.925Z,21.47
2018-02-06T05:57:46.755Z,22.83
2018-02-06T06:00:15.633Z,21.40
2018-02-06T06:02:44.525Z,22.13
2018-02-06T06:05:13.377Z,24.73
2018-02-06T06:07:42.224Z,22.37
2018-02-06T06:10:11.113Z,23.10
2018-02-06T06:12:39.941Z,21.87
2018-02-06T06:15:08.791Z,22.57
2018-02-06T06:17:37.651Z,22.93
2018-02-06T06:20:06.866Z,22.77
2018-02-06T06:22:35.711Z,20.30
2018-02-06T06:25:08.675Z,18.97
2018-02-06T06:27:37.525Z,22.83
2018-02-06T06:30:06.390Z,20.90
2018-02-06T06:32:35.241Z,22.43
2018-02-06T06:35:04.105Z,21.07
2018-02-06T06:37:32.975Z,24.43
2018-02-06T06:40:04.849Z,20.77
2018-02-06T06:42:34.585Z,22.87
2018-02-06T06:45:05.302Z,21.17
2018-02-06T06:47:34.156Z,18.83
2018-02-06T06:50:04.356Z,20.77
2018-02-06T06:52:33.207Z,22.50
2018-02-06T06:55:02.092Z,20.83
2018-02-06T06:57:31.239Z,21.80
2018-02-06T07:00:00.749Z,20.53
2018-02-06T07:02:30.681Z,20.50
2018-02-06T07:04:59.523Z,21.80
2018-02-06T07:07:28.347Z,22.47
2018-02-06T07:09:57.985Z,18.07
2018-02-06T07:12:26.840Z,20.97
2018-02-06T07:14:56.553Z,22.23
2018-02-06T07:17:25.415Z,22.00
2018-02-06T07:19:54.247Z,19.73
2018-02-06T07:22:23.129Z,23.37
2018-02-06T07:24:52.015Z,24.03
2018-02-06T07:27:20.852Z,20.80
2018-02-06T07:29:49.753Z,20.37
2018-02-06T07:32:18.663Z,21.13
2018-02-06T07:34:47.551Z,24.20
2018-02-06T07:37:16.441Z,21.60
2018-02-06T07:39:45.292Z,20.20
2018-02-06T07:42:14.313Z,25.70
2018-02-06T07:44:44.124Z,21.20
2018-02-06T07:47:12.955Z,21.67
2018-02-06T07:49:42.420Z,21.30
2018-02-06T07:52:11.877Z,23.33
2018-02-06T07:54:40.728Z,20.93
2018-02-06T07:57:09.557Z,23.40
2018-02-06T07:59:38.425Z,22.47
2018-02-06T08:02:07.264Z,21.60
2018-02-06T08:04:37.053Z,23.40
2018-02-06T08:07:05.919Z,22.07
2018-02-06T08:09:34.824Z,21.63
2018-02-06T08:12:03.728Z,22.40
2018-02-06T08:14:32.598Z,19.70
2018-02-06T08:17:01.472Z,19.50
2018-02-06T08:19:31.161Z,21.13
2018-02-06T08:22:00.256Z,22.57
2018-02-06T08:24:29.112Z,21.90
2018-02-06T08:26:58.012Z,21.20
2018-02-06T08:29:26.871Z,21.10
2018-02-06T08:31:55.712Z,18.90
2018-02-06T08:34:24.575Z,21.57
2018-02-06T08:36:53.444Z,20.17
2018-02-06T08:39:22.281Z,19.63
2018-02-06T08:41:51.143Z,20.37
2018-02-06T08:44:20.361Z,21.80
2018-02-06T08:46:49.226Z,21.63
2018-02-06T08:49:19.061Z,21.47
2018-02-06T08:51:48.551Z,20.67
2018-02-06T08:54:17.383Z,24.43
2018-02-06T08:56:46.239Z,21.67
2018-02-06T08:59:15.440Z,21.10
2018-02-06T09:01:44.275Z,23.37
2018-02-06T09:04:13.144Z,23.67
2018-02-06T09:06:41.994Z,25.50
2018-02-06T09:09:11.426Z,21.67
2018-02-06T09:11:40.293Z,27.60
2018-02-06T09:14:09.160Z,20.70
2018-02-06T09:16:38.022Z,22.23
2018-02-06T09:19:06.878Z,24.33
2018-02-06T09:21:35.717Z,21.40
2018-02-06T09:24:04.560Z,18.53
2018-02-06T09:26:33.545Z,21.50
2018-02-06T09:29:02.392Z,21.57
2018-02-06T09:31:31.262Z,22.17
2018-02-06T09:34:00.156Z,24.17
2018-02-06T09:36:29.868Z,21.00
2018-02-06T09:38:59.724Z,24.30
2018-02-06T09:41:28.610Z,19.07
2018-02-06T09:43:57.452Z,22.37
2018-02-06T09:46:26.292Z,20.33
2018-02-06T09:48:55.172Z,21.00
2018-02-06T09:51:24.058Z,21.30
2018-02-06T09:53:53.296Z,22.93
2018-02-06T09:56:22.861Z,20.57
2018-02-06T09:58:52.052Z,21.83
2018-02-06T10:01:20.927Z,20.00
2018-02-06T10:03:49.788Z,23.63
2018-02-06T10:06:19.579Z,20.30
2018-02-06T10:08:48.469Z,21.00
2018-02-06T10:11:17.530Z,22.27
2018-02-06T10:13:46.476Z,22.87
2018-02-06T10:16:15.330Z,24.30
2018-02-06T10:18:44.209Z,20.90
2018-02-06T10:21:13.053Z,24.30
2018-02-06T10:23:41.912Z,21.60
2018-02-06T10:26:11.872Z,22.07
2018-02-06T10:28:40.726Z,21.57
2018-02-06T10:31:09.613Z,24.40
2018-02-06T10:33:38.689Z,26.43
2018-02-06T10:36:07.537Z,22.90
2018-02-06T10:38:36.433Z,21.40
2018-02-06T10:41:05.338Z,24.03
2018-02-06T10:43:34.189Z,21.47
2018-02-06T10:46:03.049Z,21.10
2018-02-06T10:48:31.927Z,20.57
2018-02-06T10:51:00.749Z,20.13
2018-02-06T10:53:29.610Z,21.53
2018-02-06T10:55:58.469Z,24.03
2018-02-06T10:58:28.571Z,21.30
2018-02-06T11:00:58.348Z,20.83
2018-02-06T11:03:27.194Z,19.97
2018-02-06T11:05:56.067Z,21.87
2018-02-06T11:08:24.955Z,22.93
2018-02-06T11:10:53.824Z,21.80
2018-02-06T11:13:23.353Z,22.30
2018-02-06T11:15:52.226Z,21.73
2018-02-06T11:18:21.058Z,22.63
2018-02-06T11:20:49.899Z,21.00
2018-02-06T11:23:18.751Z,20.93
2018-02-06T11:25:47.582Z,23.23
2018-02-06T11:28:16.433Z,22.83
2018-02-06T11:30:46.805Z,22.77
2018-02-06T11:33:15.634Z,22.43
2018-02-06T11:35:44.483Z,22.00
2018-02-06T11:38:13.345Z,22.87
2018-02-06T11:40:43.116Z,22.60
2018-02-06T11:43:12.614Z,22.77
2018-02-06T11:45:41.504Z,22.47
2018-02-06T11:48:10.340Z,21.53
2018-02-06T11:50:39.224Z,22.30
2018-02-06T11:53:08.082Z,22.57
2018-02-06T11:55:36.989Z,21.73
2018-02-06T11:58:07.901Z,25.33
2018-02-06T12:00:36.804Z,25.90
2018-02-06T12:03:05.702Z,21.87
2018-02-06T12:05:34.574Z,22.00
2018-02-06T12:08:03.439Z,23.10
2018-02-06T12:10:32.266Z,20.07
2018-02-06T12:15:39.076Z,26.47
2018-02-06T12:18:08.022Z,20.70
2018-02-06T12:20:37.516Z,20.67
2018-02-06T12:23:06.428Z,24.30
2018-02-06T12:25:35.272Z,22.73
2018-02-06T12:28:04.124Z,22.03
2018-02-06T12:30:32.957Z,25.47
2018-02-06T12:33:04.260Z,23.37
2018-02-06T12:35:33.384Z,21.27
2018-02-06T12:38:02.286Z,22.43
2018-02-06T12:40:31.124Z,26.70
2018-02-06T12:42:59.952Z,23.27
2018-02-06T12:45:28.841Z,23.30
2018-02-06T12:47:57.984Z,24.87
2018-02-06T12:50:26.830Z,22.47
2018-02-06T12:52:55.762Z,22.77
2018-02-06T12:55:24.602Z,22.40
2018-02-06T12:57:53.434Z,22.13
2018-02-06T13:00:22.345Z,24.33
2018-02-06T13:02:51.192Z,24.77
2018-02-06T13:05:20.075Z,23.00
2018-02-06T13:07:48.911Z,25.23
2018-02-06T13:10:17.746Z,24.90
2018-02-06T13:12:46.610Z,21.33
2018-02-06T13:15:15.452Z,24.37
2018-02-06T13:17:44.287Z,21.70
2018-02-06T13:20:13.141Z,24.70
2018-02-06T13:22:41.996Z,25.00
2018-02-06T13:25:10.909Z,26.07
2018-02-06T13:27:39.800Z,21.57
2018-02-06T13:30:08.766Z,23.73
2018-02-06T13:32:37.632Z,24.60
2018-02-06T13:35:06.518Z,25.50
2018-02-06T13:37:35.365Z,22.63
2018-02-06T13:40:04.226Z,26.23
2018-02-06T13:42:33.086Z,23.20
2018-02-06T13:45:01.925Z,28.60
2018-02-06T13:47:30.810Z,24.30
2018-02-06T13:49:59.680Z,20.03
2018-02-06T13:52:28.588Z,23.87
2018-02-06T13:54:58.578Z,22.10
2018-02-06T13:57:27.450Z,24.00
2018-02-06T13:59:56.308Z,22.97
2018-02-06T14:02:25.138Z,22.43
2018-02-06T14:04:54.006Z,22.37
2018-02-06T14:07:23.634Z,20.53
2018-02-06T14:09:52.946Z,24.23
2018-02-06T14:12:22.100Z,21.50
2018-02-06T14:14:50.946Z,21.47
2018-02-06T14:17:19.802Z,24.90
2018-02-06T14:19:48.675Z,24.17
2018-02-06T14:22:17.730Z,25.23
2018-02-06T14:24:46.639Z,28.77
2018-02-06T14:27:15.482Z,22.50
2018-02-06T14:29:44.429Z,25.73
2018-02-06T14:32:13.306Z,24.73
2018-02-06T14:34:42.311Z,22.90
2018-02-06T14:37:11.940Z,26.20
2018-02-06T14:39:40.797Z,24.50
2018-02-06T14:42:09.885Z,24.83
2018-02-06T14:44:39.140Z,22.57
2018-02-06T14:47:08.014Z,22.90
2018-02-06T14:49:37.646Z,26.57
2018-02-06T14:52:06.502Z,24.20
2018-02-06T14:54:35.370Z,24.60
2018-02-06T14:57:05.098Z,25.87
2018-02-06T14:59:34.185Z,23.83
2018-02-06T15:02:03.828Z,26.43
2018-02-06T15:04:32.723Z,27.17
2018-02-06T15:07:02.622Z,25.47
2018-02-06T15:09:32.195Z,26.13
2018-02-06T15:12:01.032Z,24.30
2018-02-06T15:14:29.966Z,24.77
2018-02-06T15:16:58.854Z,24.10
2018-02-06T15:19:27.722Z,27.00
2018-02-06T15:21:56.558Z,22.83
2018-02-06T15:24:25.457Z,25.43
2018-02-06T15:26:54.986Z,22.17
2018-02-06T15:29:23.825Z,24.37
2018-02-06T15:31:52.736Z,23.03
2018-02-06T15:34:21.590Z,23.70
2018-02-06T15:36:50.483Z,20.87
2018-02-06T15:39:19.420Z,24.30
2018-02-06T15:41:48.247Z,24.10
2018-02-06T15:44:18.174Z,33.87
2018-02-06T15:46:47.213Z,28.77
2018-02-06T15:49:16.117Z,26.23
2018-02-06T15:51:44.966Z,27.53
2018-02-06T15:54:13.817Z,21.47
2018-02-06T15:56:42.893Z,25.63
2018-02-06T15:59:11.895Z,23.33
2018-02-06T16:01:40.882Z,24.07
2018-02-06T16:04:09.779Z,25.50
2018-02-06T16:06:38.626Z,24.30
2018-02-06T16:09:07.481Z,25.40
2018-02-06T16:11:36.559Z,23.90
2018-02-06T16:14:05.445Z,26.03
2018-02-06T16:16:34.391Z,27.17
2018-02-06T16:19:03.219Z,24.43
2018-02-06T16:21:32.083Z,26.33
2018-02-06T16:24:01.158Z,26.37
2018-02-06T16:26:29.998Z,23.63
2018-02-06T16:28:59.712Z,23.10
2018-02-06T16:31:28.782Z,23.10
2018-02-06T16:33:57.668Z,22.50
2018-02-06T16:36:26.532Z,23.13
2018-02-06T16:38:55.707Z,22.37
2018-02-06T16:41:24.647Z,21.53
2018-02-06T16:43:53.499Z,22.20
2018-02-06T16:46:22.359Z,24.03
2018-02-06T16:48:51.251Z,23.17
2018-02-06T16:51:20.309Z,23.90
2018-02-06T16:53:49.401Z,23.80
2018-02-06T16:56:18.543Z,25.47
2018-02-06T16:58:47.437Z,23.37
2018-02-06T17:01:16.270Z,28.37
2018-02-06T17:03:45.163Z,26.40
2018-02-06T17:06:14.109Z,20.83
2018-02-06T17:08:42.971Z,21.17
2018-02-06T17:11:12.504Z,22.67
2018-02-06T17:13:42.323Z,24.13
2018-02-06T17:16:11.167Z,21.83
2018-02-06T17:18:40.043Z,24.20
2018-02-06T17:21:08.895Z,24.47
2018-02-06T17:23:37.737Z,24.27
2018-02-06T17:26:07.463Z,21.10
2018-02-06T17:28:36.317Z,24.23
2018-02-06T17:31:06.003Z,20.20
2018-02-06T17:33:34.879Z,21.97
2018-02-06T17:36:03.765Z,21.07
2018-02-06T17:38:32.639Z,25.17
2018-02-06T17:41:01.519Z,20.13
2018-02-06T17:43:30.425Z,20.33
2018-02-06T17:45:59.303Z,22.83
2018-02-06T17:48:28.155Z,21.40
2018-02-06T17:50:57.031Z,21.00
2018-02-06T17:53:25.865Z,19.53
2018-02-06T17:55:54.771Z,21.17
2018-02-06T17:58:23.598Z,21.17
2018-02-06T18:00:52.457Z,21.90
2018-02-06T18:03:22.427Z,21.33
2018-02-06T18:05:51.267Z,21.10
2018-02-06T18:08:20.177Z,20.13
2018-02-06T18:10:49.037Z,22.43
2018-02-06T18:13:17.873Z,20.10
2018-02-06T18:15:46.771Z,21.27
2018-02-06T18:18:15.827Z,22.40
2018-02-06T18:20:44.707Z,25.97
2018-02-06T18:23:13.548Z,19.83
2018-02-06T18:25:42.421Z,21.33
2018-02-06T18:28:11.265Z,28.43
2018-02-06T18:30:40.100Z,23.77
2018-02-06T18:33:08.980Z,24.03
2018-02-06T18:35:37.823Z,24.10
2018-02-06T18:38:06.755Z,20.57
2018-02-06T18:40:35.615Z,24.73
2018-02-06T18:43:04.469Z,21.97
2018-02-06T18:45:33.355Z,22.93
2018-02-06T18:48:02.213Z,24.70
2018-02-06T18:50:31.066Z,24.90
2018-02-06T18:52:59.931Z,21.77
2018-02-06T18:55:28.776Z,24.33
2018-02-06T18:57:58.443Z,21.67
2018-02-06T19:00:27.333Z,25.50
2018-02-06T19:02:56.177Z,24.03
2018-02-06T19:05:25.016Z,25.00
2018-02-06T19:07:54.443Z,23.23
2018-02-06T19:10:23.293Z,22.20
2018-02-06T19:12:52.141Z,18.73
2018-02-06T19:15:21.032Z,22.47
2018-02-06T19:17:49.884Z,23.43
2018-02-06T19:20:19.058Z,21.13
2018-02-06T19:22:47.917Z,26.90
2018-02-06T19:25:16.861Z,24.83
2018-02-06T19:27:45.833Z,23.63
2018-02-06T19:30:14.765Z,20.70
2018-02-06T19:32:43.601Z,22.10
2018-02-06T19:35:12.451Z,23.50
2018-02-06T19:37:41.682Z,20.90
2018-02-06T19:40:11.074Z,21.03
2018-02-06T19:42:39.923Z,23.53
2018-02-06T19:45:08.824Z,20.90
2018-02-06T19:47:37.685Z,22.50
2018-02-06T19:50:06.541Z,19.63
2018-02-06T19:52:35.469Z,19.30
2018-02-06T19:55:04.377Z,19.70
2018-02-06T19:57:33.259Z,19.47
2018-02-06T20:00:02.114Z,19.97
2018-02-06T20:02:31.506Z,20.43
2018-02-06T20:05:00.990Z,20.00
2018-02-06T20:07:29.986Z,23.57
2018-02-06T20:09:58.847Z,23.17
2018-02-06T20:12:27.718Z,22.93
2018-02-06T20:14:57.594Z,21.73
2018-02-06T20:17:27.227Z,22.20
2018-02-06T20:19:56.072Z,23.07
2018-02-06T20:22:24.911Z,19.37
2018-02-06T20:24:54.110Z,24.63
2018-02-06T20:27:22.974Z,22.97
2018-02-06T20:29:51.837Z,21.47
2018-02-06T20:32:20.772Z,20.83
2018-02-06T20:34:49.633Z,20.70
2018-02-06T20:37:18.511Z,20.20
2018-02-06T20:39:47.395Z,20.97
2018-02-06T20:42:16.246Z,21.30
2018-02-06T20:44:45.082Z,18.20
2018-02-06T20:47:13.944Z,19.77
2018-02-06T20:49:42.796Z,18.90
2018-02-06T20:52:12.502Z,19.23
2018-02-06T20:54:41.392Z,18.90
2018-02-06T20:57:11.308Z,19.30
2018-02-06T20:59:40.200Z,16.83
2018-02-06T21:02:09.074Z,16.90
2018-02-06T21:04:37.928Z,15.67
2018-02-06T21:07:06.783Z,18.37
2018-02-06T21:09:35.671Z,16.13
2018-02-06T21:12:04.519Z,15.87
2018-02-06T21:14:33.387Z,16.47
2018-02-06T21:17:02.248Z,16.63
2018-02-06T21:19:31.087Z,17.20
2018-02-06T21:21:59.932Z,17.67
2018-02-06T21:24:30.214Z,16.43
2018-02-06T21:26:59.066Z,15.40
2018-02-06T21:29:28.555Z,17.00
2018-02-06T21:31:57.717Z,18.50
2018-02-06T21:34:29.110Z,17.33
2018-02-06T21:37:00.202Z,15.83
2018-02-06T21:39:33.143Z,16.33
2018-02-06T21:42:02.032Z,15.57
2018-02-06T21:44:31.001Z,16.90
2018-02-06T21:46:59.884Z,15.63
2018-02-06T21:49:28.828Z,16.20
2018-02-06T21:51:59.779Z,17.87
2018-02-06T21:54:29.623Z,16.00
2018-02-06T21:56:58.503Z,16.70
2018-02-06T21:59:32.876Z,15.60
2018-02-06T22:02:02.018Z,17.27
2018-02-06T22:04:31.762Z,12.80
2018-02-06T22:07:00.594Z,12.83
2018-02-06T22:09:29.732Z,13.63
2018-02-06T22:11:58.602Z,15.60
2018-02-06T22:14:27.440Z,13.87
2018-02-06T22:16:56.533Z,15.70
2018-02-06T22:19:25.462Z,16.73
2018-02-06T22:21:54.402Z,14.23
2018-02-06T22:24:23.236Z,15.20
2018-02-06T22:26:52.104Z,14.40
2018-02-06T22:29:21.349Z,12.67
2018-02-06T22:31:50.255Z,13.13
2018-02-06T22:34:19.128Z,13.73
2018-02-06T22:36:47.952Z,16.23
2018-02-06T22:39:16.826Z,15.50
2018-02-06T22:41:45.740Z,15.70
2018-02-06T22:44:15.550Z,14.10
2018-02-06T22:46:46.045Z,13.93
2018-02-06T22:49:14.920Z,12.70
2018-02-06T22:51:43.764Z,17.27
2018-02-06T22:54:12.596Z,15.73
2018-02-06T22:56:41.449Z,13.60
2018-02-06T22:59:10.328Z,14.37
2018-02-06T23:01:39.150Z,15.57
2018-02-06T23:04:08.008Z,14.37
2018-02-06T23:06:36.868Z,15.00
2018-02-06T23:09:05.724Z,16.73
2018-02-06T23:11:34.628Z,14.93
2018-02-06T23:14:03.480Z,14.83
2018-02-06T23:16:33.272Z,15.57
2018-02-06T23:19:02.300Z,16.00
2018-02-06T23:21:31.132Z,14.93
2018-02-06T23:23:59.992Z,13.73
2018-02-06T23:26:28.894Z,16.00
2018-02-06T23:28:57.732Z,18.10
2018-02-06T23:31:26.558Z,13.33
2018-02-06T23:33:56.194Z,13.07
2018-02-06T23:36:25.026Z,16.03
2018-02-06T23:38:53.856Z,14.80
2018-02-06T23:41:22.700Z,15.17
2018-02-06T23:43:51.590Z,14.70
2018-02-06T23:46:21.298Z,15.83
2018-02-06T23:48:50.634Z,15.10
2018-02-06T23:51:20.164Z,15.30
2018-02-06T23:53:49.022Z,13.93
2018-02-06T23:56:17.976Z,15.20
2018-02-06T23:58:47.754Z,17.83
